Huvudsida
METAR-TAF:

METAR-TAF

Flygplatser :

Beirut Air Base

Beirut, Libanon

latitud: 33-49N, longitud: 035-29E, höjd: 29 m

Aktuellt väderrapport

Denna rapport gjordes för 48 minuter sedan, klockan 12:00 UTC
Vind 8 kt från nordost, varierande mellan nord och ost/nordost
Temperatur 29°C
Fuktighet 43%
Tryck 1015 hPa
Sikt: 5000 m
Brutna moln på en höjd av 8000 ft
torrdis

METAR: OLBA 221200Z 05008KT 360V070 5000 HZ BKN080 29/15 Q1015 NOSIG

Tid: 15:48 (12:48 UTC)

Väderprognos

Denna rapport gjordes för 2 timmar och 48 minuter sedan, klockan 10:00 UTC
Prognos gäller från 22 kl. 12 UTC till 23 kl. 18 UTC
Vind 10 kt från nord i byarna ända upp till 20 kt
Sikt: 5000 m
Brutna moln på en höjd av 12000 ft
torrdis
Blir
från 22 kl. 20 UTC till 22 kl. 22 UTC
Vind 15 kt från ost
Blir
från 23 kl. 08 UTC till 23 kl. 10 UTC
Vind 10 kt från nord i byarna ända upp till 20 kt

TAF: OLBA 221000Z 2212/2318 36010G20KT 5000 HZ BKN120 BECMG 2220/2222 09015KT BECMG 2308/2310 36010G20KT

Aktuella väderrapporter och prognoser från 4000 flygplatser (METAR- och TAF-rapporter).

De tillgängliga stationerna syns som gula och röda prickar på kartan.

För musen över prickarna för att se namnen på stationerna.

Klicka sedan för att få väderrapporter och prognoser.

För att ändra kartan: Klicka på de gröna knapparna med ett svart kors på för att zooma in; den gröna knappen med ett streck på för att zooma ut; eller på de gröna pilarna för angränsande kartor.


METAR-TAF: